Time;durP1;ratioP1;P1;durP2;ratioP2;P2;SDS_P1;SDS_P2;PMS_P1;PMS_P2;Temp;Humidity;BMP_temperature;BMP_pressure;BME280_temperature;BME280_humidity;BME280_pressure;Samples;Min_cycle;Max_cycle;Signal;HPM_P1;HPM_P2
2023/12/04 00:02:08;;;;;;;;;;;;;;;;;;4995097;28;19909;-47
2023/12/04 00:04:34;;;;;;;;;;;;;;;;;;4995748;28;19953;-48
2023/12/04 00:07:00;;;;;;;;;;;;;;;;;;5004509;28;19921;-49
2023/12/04 00:09:27;;;;;;;;;;;;;;;;;;4992746;28;20179;-47
2023/12/04 00:11:53;;;;;;;;;;;;;;;;;;4995944;28;20012;-47
2023/12/04 00:14:19;;;;;;;;;;;;;;;;;;4993216;28;20393;-47
2023/12/04 00:16:45;;;;;;;;;;;;;;;;;;4974835;28;20025;-47
2023/12/04 00:19:11;;;;;;;;;;;;;;;;;;4967449;28;19917;-47
2023/12/04 00:21:37;;;;;;;;;;;;;;;;;;4992803;28;19936;-47
2023/12/04 00:24:03;;;;;;;;;;;;;;;;;;5010440;28;19914;-47
2023/12/04 00:26:29;;;;;;;;;;;;;;;;;;5011364;28;19910;-47
2023/12/04 00:28:55;;;;;;;;;;;;;;;;;;5015007;28;20428;-47
2023/12/04 00:31:21;;;;;;;;;;;;;;;;;;5003949;28;19921;-47
2023/12/04 00:33:48;;;;;;;;;;;;;;;;;;5006605;28;19917;-47
2023/12/04 00:36:14;;;;;;;;;;;;;;;;;;4996346;28;19917;-47
2023/12/04 00:38:40;;;;;;;;;;;;;;;;;;4995915;28;19960;-46
2023/12/04 00:41:06;;;;;;;;;;;;;;;;;;4995813;28;19914;-46
2023/12/04 00:43:32;;;;;;;;;;;;;;;;;;5010542;28;19940;-46
2023/12/04 00:45:58;;;;;;;;;;;;;;;;;;5009699;28;20378;-48
2023/12/04 00:48:24;;;;;;;;;;;;;;;;;;5015736;28;19925;-48
2023/12/04 00:50:50;;;;;;;;;;;;;;;;;;4996385;28;20294;-46
2023/12/04 00:53:16;;;;;;;;;;;;;;;;;;5015333;28;19937;-47
2023/12/04 00:55:42;;;;;;;;;;;;;;;;;;5007600;28;20367;-45
2023/12/04 00:58:08;;;;;;;;;;;;;;;;;;4995862;28;20020;-49
2023/12/04 01:00:34;;;;;;;;;;;;;;;;;;5007017;28;19917;-47
2023/12/04 01:03:00;;;;;;;;;;;;;;;;;;4995193;28;19960;-47
2023/12/04 01:05:26;;;;;;;;;;;;;;;;;;5005779;28;19914;-46
2023/12/04 01:07:52;;;;;;;;;;;;;;;;;;4978198;28;19964;-47
2023/12/04 01:10:18;;;;;;;;;;;;;;;;;;4996781;28;19914;-48
2023/12/04 01:12:44;;;;;;;;;;;;;;;;;;4995179;28;19968;-47
2023/12/04 01:15:10;;;;;;;;;;;;;;;;;;4995687;28;19917;-49
2023/12/04 01:17:36;;;;;;;;;;;;;;;;;;5015060;28;19914;-47
2023/12/04 01:20:02;;;;;;;;;;;;;;;;;;5011771;28;19909;-48
2023/12/04 01:22:28;;;;;;;;;;;;;;;;;;5014785;28;20389;-48
2023/12/04 01:24:54;;;;;;;;;;;;;;;;;;5014544;28;19960;-49
2023/12/04 01:27:20;;;;;;;;;;;;;;;;;;5014959;28;19917;-46
2023/12/04 01:29:46;;;;;;;;;;;;;;;;;;5007995;28;19917;-48
2023/12/04 01:32:13;;;;;;;;;;;;;;;;;;5012187;28;20076;-48
2023/12/04 01:34:39;;;;;;;;;;;;;;;;;;5008060;28;19961;-47
2023/12/04 01:37:05;;;;;;;;;;;;;;;;;;4995800;28;19955;-46
2023/12/04 01:39:31;;;;;;;;;;;;;;;;;;4998737;28;19929;-48
2023/12/04 01:41:57;;;;;;;;;;;;;;;;;;5014470;28;19913;-47
2023/12/04 01:44:23;;;;;;;;;;;;;;;;;;4978597;28;19956;-47
2023/12/04 01:46:49;;;;;;;;;;;;;;;;;;5008992;28;19957;-47
2023/12/04 01:49:15;;;;;;;;;;;;;;;;;;5011030;28;19913;-47
2023/12/04 01:51:41;;;;;;;;;;;;;;;;;;4999908;28;20271;-50
2023/12/04 01:54:07;;;;;;;;;;;;;;;;;;4999341;28;19967;-48
2023/12/04 01:56:33;;;;;;;;;;;;;;;;;;5014404;28;19913;-49
2023/12/04 01:58:59;;;;;;;;;;;;;;;;;;4996569;28;20008;-48
2023/12/04 02:01:25;;;;;;;;;;;;;;;;;;5005618;28;19914;-47
2023/12/04 02:03:51;;;;;;;;;;;;;;;;;;4999279;28;20436;-47
2023/12/04 02:06:20;;;;;;;;;;;;;;;;;;4994896;28;19921;-49
2023/12/04 02:08:46;;;;;;;;;;;;;;;;;;4994843;28;19921;-48
2023/12/04 02:11:12;;;;;;;;;;;;;;;;;;5011467;28;19917;-51
2023/12/04 02:13:38;;;;;;;;;;;;;;;;;;5013863;28;20267;-51
2023/12/04 02:16:07;;;;;;;;;;;;;;;;;;5005520;28;19968;-47
2023/12/04 02:18:33;;;;;;;;;;;;;;;;;;4995275;28;19914;-47
2023/12/04 02:20:59;;;;;;;;;;;;;;;;;;5009918;28;20460;-47
2023/12/04 02:23:25;;;;;;;;;;;;;;;;;;5013540;28;20473;-48
2023/12/04 02:25:51;;;;;;;;;;;;;;;;;;5013859;28;20379;-50
2023/12/04 02:28:17;;;;;;;;;;;;;;;;;;4999167;28;19910;-46
2023/12/04 02:30:43;;;;;;;;;;;;;;;;;;4994137;28;19918;-48
2023/12/04 02:33:09;;;;;;;;;;;;;;;;;;4976456;28;19932;-48
2023/12/04 02:35:35;;;;;;;;;;;;;;;;;;4994291;28;19994;-48
2023/12/04 02:38:01;;;;;;;;;;;;;;;;;;4994120;28;19953;-46
2023/12/04 02:40:27;;;;;;;;;;;;;;;;;;4993977;28;20413;-46
2023/12/04 02:42:53;;;;;;;;;;;;;;;;;;4993680;28;19910;-46
2023/12/04 02:45:19;;;;;;;;;;;;;;;;;;4993914;28;20001;-48
2023/12/04 02:47:45;;;;;;;;;;;;;;;;;;4993734;28;20357;-47
2023/12/04 02:50:12;;;;;;;;;;;;;;;;;;4993441;28;19918;-48
2023/12/04 02:52:38;;;;;;;;;;;;;;;;;;4993013;28;19916;-48
2023/12/04 02:55:04;;;;;;;;;;;;;;;;;;4993557;28;20375;-47
2023/12/04 02:57:30;;;;;;;;;;;;;;;;;;4993545;28;20439;-48
2023/12/04 02:59:56;;;;;;;;;;;;;;;;;;4976362;28;19914;-49
2023/12/04 03:02:22;;;;;;;;;;;;;;;;;;4993330;28;20306;-47
2023/12/04 03:04:48;;;;;;;;;;;;;;;;;;4993211;28;19953;-46
2023/12/04 03:07:14;;;;;;;;;;;;;;;;;;4993366;28;20405;-50
2023/12/04 03:09:40;;;;;;;;;;;;;;;;;;4993411;28;19914;-48
2023/12/04 03:12:06;;;;;;;;;;;;;;;;;;4975598;28;19949;-46
2023/12/04 03:14:32;;;;;;;;;;;;;;;;;;4974616;28;19918;-47
2023/12/04 03:16:58;;;;;;;;;;;;;;;;;;4992789;28;19920;-47
2023/12/04 03:19:24;;;;;;;;;;;;;;;;;;4993290;28;19969;-47
2023/12/04 03:21:50;;;;;;;;;;;;;;;;;;4975881;28;19914;-47
2023/12/04 03:24:16;;;;;;;;;;;;;;;;;;4991573;28;19910;-48
2023/12/04 03:26:42;;;;;;;;;;;;;;;;;;4993553;28;20001;-49
2023/12/04 03:29:08;;;;;;;;;;;;;;;;;;4993158;28;19913;-50
2023/12/04 03:31:36;;;;;;;;;;;;;;;;;;4975699;28;19914;-47
2023/12/04 03:34:02;;;;;;;;;;;;;;;;;;4975476;28;19913;-48
2023/12/04 03:36:28;;;;;;;;;;;;;;;;;;4975786;28;19916;-46
2023/12/04 03:38:54;;;;;;;;;;;;;;;;;;4975616;28;20364;-46
2023/12/04 03:41:22;;;;;;;;;;;;;;;;;;4992934;28;20359;-51
2023/12/04 03:43:48;;;;;;;;;;;;;;;;;;4992341;28;19914;-51
2023/12/04 03:46:14;;;;;;;;;;;;;;;;;;4992932;28;19910;-48
2023/12/04 03:48:40;;;;;;;;;;;;;;;;;;4992820;28;19914;-49
2023/12/04 03:51:06;;;;;;;;;;;;;;;;;;4975380;28;19913;-47
2023/12/04 03:53:32;;;;;;;;;;;;;;;;;;4992688;28;19914;-50
2023/12/04 03:55:58;;;;;;;;;;;;;;;;;;4992995;28;19910;-47
2023/12/04 03:58:24;;;;;;;;;;;;;;;;;;4992889;28;19921;-48
2023/12/04 04:00:50;;;;;;;;;;;;;;;;;;4992855;28;19910;-47
2023/12/04 04:03:16;;;;;;;;;;;;;;;;;;5009425;23;20413;-49
2023/12/04 04:05:42;;;;;;;;;;;;;;;;;;5050632;28;19913;-49
2023/12/04 04:08:08;;;;;;;;;;;;;;;;;;5042231;28;20365;-51
2023/12/04 04:10:34;;;;;;;;;;;;;;;;;;5032011;28;20007;-52
2023/12/04 04:13:00;;;;;;;;;;;;;;;;;;5029546;28;20377;-50
2023/12/04 04:15:27;;;;;;;;;;;;;;;;;;5017195;28;19985;-49
2023/12/04 04:17:53;;;;;;;;;;;;;;;;;;5017278;28;19925;-49
2023/12/04 04:20:19;;;;;;;;;;;;;;;;;;5031916;28;19909;-50
2023/12/04 04:22:46;;;;;;;;;;;;;;;;;;5023459;28;19944;-49
2023/12/04 04:25:12;;;;;;;;;;;;;;;;;;5021024;28;19975;-52
2023/12/04 04:27:38;;;;;;;;;;;;;;;;;;5031943;28;20281;-49
2023/12/04 04:30:04;;;;;;;;;;;;;;;;;;5031861;28;20304;-50
2023/12/04 04:32:30;;;;;;;;;;;;;;;;;;5012105;28;19913;-52
2023/12/04 04:34:56;;;;;;;;;;;;;;;;;;5011952;28;20404;-51
2023/12/04 04:37:22;;;;;;;;;;;;;;;;;;5015677;28;19910;-51
2023/12/04 04:39:48;;;;;;;;;;;;;;;;;;5020776;28;19953;-51
2023/12/04 04:42:15;;;;;;;;;;;;;;;;;;5031611;28;19917;-49
2023/12/04 04:44:41;;;;;;;;;;;;;;;;;;5030910;28;19920;-49
2023/12/04 04:47:07;;;;;;;;;;;;;;;;;;5027338;28;19920;-50
2023/12/04 04:49:33;;;;;;;;;;;;;;;;;;5031073;28;19913;-52
2023/12/04 04:51:59;;;;;;;;;;;;;;;;;;5028619;28;20062;-47
2023/12/04 04:54:25;;;;;;;;;;;;;;;;;;5025492;28;19944;-46
2023/12/04 04:56:51;;;;;;;;;;;;;;;;;;5022580;28;19964;-49
2023/12/04 04:59:17;;;;;;;;;;;;;;;;;;5028543;28;19913;-49
2023/12/04 05:01:43;;;;;;;;;;;;;;;;;;5029544;28;20324;-50
2023/12/04 05:04:09;;;;;;;;;;;;;;;;;;5029229;28;19921;-51
2023/12/04 05:06:35;;;;;;;;;;;;;;;;;;5030733;28;20292;-49
2023/12/04 05:09:01;;;;;;;;;;;;;;;;;;5030754;28;20000;-50
2023/12/04 05:11:27;;;;;;;;;;;;;;;;;;5030629;28;20282;-49
2023/12/04 05:13:53;;;;;;;;;;;;;;;;;;5030232;28;19967;-49
2023/12/04 05:16:19;;;;;;;;;;;;;;;;;;5035237;28;19956;-48
2023/12/04 05:18:45;;;;;;;;;;;;;;;;;;5033661;28;20339;-49
2023/12/04 05:21:12;;;;;;;;;;;;;;;;;;5033731;28;19913;-49
2023/12/04 05:23:38;;;;;;;;;;;;;;;;;;5033496;28;19949;-50
2023/12/04 05:26:04;;;;;;;;;;;;;;;;;;5033662;28;19964;-50
2023/12/04 05:28:30;;;;;;;;;;;;;;;;;;5034942;28;19909;-49
2023/12/04 05:30:56;;;;;;;;;;;;;;;;;;5034657;28;20271;-50
2023/12/04 05:33:22;;;;;;;;;;;;;;;;;;5033964;28;19917;-49
2023/12/04 05:35:48;;;;;;;;;;;;;;;;;;5034749;28;19917;-50
2023/12/04 05:38:14;;;;;;;;;;;;;;;;;;5034708;28;19968;-49
2023/12/04 05:40:40;;;;;;;;;;;;;;;;;;5034625;28;20023;-49
2023/12/04 05:43:06;;;;;;;;;;;;;;;;;;5034503;28;20397;-50
2023/12/04 05:45:32;;;;;;;;;;;;;;;;;;5034513;28;19909;-49
2023/12/04 05:47:58;;;;;;;;;;;;;;;;;;5034614;28;19916;-49
2023/12/04 05:50:24;;;;;;;;;;;;;;;;;;5033126;28;20004;-51
2023/12/04 05:52:50;;;;;;;;;;;;;;;;;;5034248;28;19956;-50
2023/12/04 05:55:16;;;;;;;;;;;;;;;;;;5034435;28;19920;-49
2023/12/04 05:57:42;;;;;;;;;;;;;;;;;;5034396;28;19909;-50
2023/12/04 06:00:12;;;;;;;;;;;;;;;;;;5034215;28;19920;-49
2023/12/04 06:02:38;;;;;;;;;;;;;;;;;;5034078;28;19913;-50
2023/12/04 06:05:04;;;;;;;;;;;;;;;;;;5034112;28;19921;-49
2023/12/04 06:07:30;;;;;;;;;;;;;;;;;;5034240;28;19909;-50
2023/12/04 06:09:56;;;;;;;;;;;;;;;;;;5032950;28;19953;-49
2023/12/04 06:12:22;;;;;;;;;;;;;;;;;;5032862;28;20302;-49
2023/12/04 06:14:48;;;;;;;;;;;;;;;;;;5033911;28;19913;-49
2023/12/04 06:17:14;;;;;;;;;;;;;;;;;;5032793;28;20301;-49
2023/12/04 06:19:41;;;;;;;;;;;;;;;;;;5033995;28;19920;-50
2023/12/04 06:22:07;;;;;;;;;;;;;;;;;;5033927;28;19909;-50
2023/12/04 06:24:33;;;;;;;;;;;;;;;;;;5032735;28;19936;-49
2023/12/04 06:26:59;;;;;;;;;;;;;;;;;;5034027;28;19913;-49
2023/12/04 06:29:25;;;;;;;;;;;;;;;;;;5033786;28;19909;-50
2023/12/04 06:31:51;;;;;;;;;;;;;;;;;;5033672;28;19917;-49
2023/12/04 06:34:17;;;;;;;;;;;;;;;;;;5033288;28;19996;-49
2023/12/04 06:36:43;;;;;;;;;;;;;;;;;;5033604;28;19948;-49
2023/12/04 06:39:09;;;;;;;;;;;;;;;;;;5034755;28;19920;-53
2023/12/04 06:41:35;;;;;;;;;;;;;;;;;;5034470;28;20324;-52
2023/12/04 06:44:01;;;;;;;;;;;;;;;;;;5035744;28;19913;-55
2023/12/04 06:46:28;;;;;;;;;;;;;;;;;;5035545;28;20410;-55
2023/12/04 06:48:55;;;;;;;;;;;;;;;;;;5033940;28;19948;-54
2023/12/04 06:51:21;;;;;;;;;;;;;;;;;;5026095;28;19971;-56
2023/12/04 06:53:47;;;;;;;;;;;;;;;;;;5034392;28;20289;-50
2023/12/04 06:56:13;;;;;;;;;;;;;;;;;;5033110;28;19913;-49
2023/12/04 06:58:39;;;;;;;;;;;;;;;;;;5033299;28;20344;-48
2023/12/04 07:01:05;;;;;;;;;;;;;;;;;;5033173;28;19980;-50
2023/12/04 07:03:31;;;;;;;;;;;;;;;;;;5032726;28;19924;-49
2023/12/04 07:05:57;;;;;;;;;;;;;;;;;;5032843;28;19913;-50
2023/12/04 07:08:23;;;;;;;;;;;;;;;;;;5032997;28;19916;-50
2023/12/04 07:10:49;;;;;;;;;;;;;;;;;;5033062;28;19917;-48
2023/12/04 07:13:16;;;;;;;;;;;;;;;;;;5031494;28;19920;-49
2023/12/04 07:15:42;;;;;;;;;;;;;;;;;;5032865;28;19909;-49
2023/12/04 07:18:08;;;;;;;;;;;;;;;;;;5032791;28;19924;-49
2023/12/04 07:20:34;;;;;;;;;;;;;;;;;;5032645;28;19909;-51
2023/12/04 07:23:00;;;;;;;;;;;;;;;;;;5031317;28;19920;-49
2023/12/04 07:25:26;;;;;;;;;;;;;;;;;;5032668;28;20003;-49
2023/12/04 07:27:52;;;;;;;;;;;;;;;;;;5032786;28;20344;-51
2023/12/04 07:30:20;;;;;;;;;;;;;;;;;;5031379;28;20324;-49
2023/12/04 07:32:46;;;;;;;;;;;;;;;;;;5032386;28;19959;-50
2023/12/04 07:35:12;;;;;;;;;;;;;;;;;;5032434;28;19916;-50
2023/12/04 07:37:38;;;;;;;;;;;;;;;;;;5032142;28;19939;-52
2023/12/04 07:40:05;;;;;;;;;;;;;;;;;;5032648;28;19913;-51
2023/12/04 07:42:31;;;;;;;;;;;;;;;;;;5032202;28;20503;-49
2023/12/04 07:44:57;;;;;;;;;;;;;;;;;;5032411;28;20015;-49
2023/12/04 07:47:24;;;;;;;;;;;;;;;;;;5032512;28;20365;-51
2023/12/04 07:49:50;;;;;;;;;;;;;;;;;;5032121;28;19910;-49
2023/12/04 07:52:17;;;;;;;;;;;;;;;;;;5030856;28;19917;-49
2023/12/04 07:54:43;;;;;;;;;;;;;;;;;;5031151;28;19909;-48
2023/12/04 07:57:09;;;;;;;;;;;;;;;;;;5032425;28;19913;-50
2023/12/04 07:59:35;;;;;;;;;;;;;;;;;;5032278;28;19909;-50
2023/12/04 08:02:01;;;;;;;;;;;;;;;;;;5032271;28;19927;-51
2023/12/04 08:04:27;;;;;;;;;;;;;;;;;;5031869;28;20401;-49
2023/12/04 08:06:53;;;;;;;;;;;;;;;;;;5032077;28;19932;-52
2023/12/04 08:09:19;;;;;;;;;;;;;;;;;;5032073;28;19913;-50
2023/12/04 08:11:45;;;;;;;;;;;;;;;;;;5030921;28;20416;-50
2023/12/04 08:14:11;;;;;;;;;;;;;;;;;;5031818;28;19963;-50
2023/12/04 08:16:38;;;;;;;;;;;;;;;;;;5031679;28;19917;-50
2023/12/04 08:19:04;;;;;;;;;;;;;;;;;;5031710;28;19958;-50
2023/12/04 08:21:30;;;;;;;;;;;;;;;;;;5029532;28;19914;-51
2023/12/04 08:23:56;;;;;;;;;;;;;;;;;;5012133;28;19909;-50
2023/12/04 08:26:22;;;;;;;;;;;;;;;;;;5012498;28;19936;-50
2023/12/04 08:28:48;;;;;;;;;;;;;;;;;;5010969;28;19914;-50
2023/12/04 08:31:15;;;;;;;;;;;;;;;;;;5012152;28;19918;-50
2023/12/04 08:33:41;;;;;;;;;;;;;;;;;;5010667;28;20370;-49
2023/12/04 08:36:07;;;;;;;;;;;;;;;;;;5010956;28;19910;-49
2023/12/04 08:38:33;;;;;;;;;;;;;;;;;;5012140;28;19913;-49
2023/12/04 08:40:59;;;;;;;;;;;;;;;;;;5010809;28;19927;-50
2023/12/04 08:43:25;;;;;;;;;;;;;;;;;;5011902;28;20305;-50
2023/12/04 08:45:51;;;;;;;;;;;;;;;;;;5012146;28;20390;-50
2023/12/04 08:48:17;;;;;;;;;;;;;;;;;;5010896;28;20337;-50
2023/12/04 08:50:43;;;;;;;;;;;;;;;;;;5014101;28;20345;-49
2023/12/04 08:53:09;;;;;;;;;;;;;;;;;;5014314;28;19921;-49
2023/12/04 08:55:36;;;;;;;;;;;;;;;;;;5015726;28;20414;-51
2023/12/04 08:58:02;;;;;;;;;;;;;;;;;;5015848;28;20003;-49
2023/12/04 09:00:28;;;;;;;;;;;;;;;;;;5015534;28;19921;-50
2023/12/04 09:02:55;;;;;;;;;;;;;;;;;;5015201;28;19914;-50
2023/12/04 09:05:22;;;;;;;;;;;;;;;;;;5015090;28;19971;-50
2023/12/04 09:07:48;;;;;;;;;;;;;;;;;;5015231;28;19917;-49
2023/12/04 09:10:14;;;;;;;;;;;;;;;;;;5014503;28;19917;-50
2023/12/04 09:12:40;;;;;;;;;;;;;;;;;;5014790;28;19914;-50
2023/12/04 09:15:06;;;;;;;;;;;;;;;;;;5014753;28;19913;-50
2023/12/04 09:17:32;;;;;;;;;;;;;;;;;;5015041;28;19963;-49
2023/12/04 09:19:58;;;;;;;;;;;;;;;;;;5015184;28;19917;-50
2023/12/04 09:22:24;;;;;;;;;;;;;;;;;;5015052;28;19967;-50
2023/12/04 09:24:50;;;;;;;;;;;;;;;;;;5014998;28;19956;-50
2023/12/04 09:27:16;;;;;;;;;;;;;;;;;;5013998;28;19917;-52
2023/12/04 09:29:43;;;;;;;;;;;;;;;;;;5013698;28;19925;-49
2023/12/04 09:32:09;;;;;;;;;;;;;;;;;;5014758;28;19917;-52
2023/12/04 09:34:35;;;;;;;;;;;;;;;;;;5015009;28;20370;-49
2023/12/04 09:37:01;;;;;;;;;;;;;;;;;;5015062;28;19916;-50
2023/12/04 09:39:27;;;;;;;;;;;;;;;;;;5014886;28;19917;-50
2023/12/04 09:41:53;;;;;;;;;;;;;;;;;;5014880;28;19955;-52
2023/12/04 09:44:19;;;;;;;;;;;;;;;;;;5014557;28;19920;-50
2023/12/04 09:46:45;;;;;;;;;;;;;;;;;;5013392;28;19909;-51
2023/12/04 09:49:12;;;;;;;;;;;;;;;;;;5014626;28;19913;-51
2023/12/04 09:51:38;;;;;;;;;;;;;;;;;;5014532;28;19924;-52
2023/12/04 09:54:07;;;;;;;;;;;;;;;;;;5014338;28;19953;-50
2023/12/04 09:56:33;;;;;;;;;;;;;;;;;;5014574;28;19909;-51
2023/12/04 09:59:02;;;;;;;;;;;;;;;;;;5014470;28;20305;-50
2023/12/04 10:01:28;;;;;;;;;;;;;;;;;;5014253;28;20296;-51
2023/12/04 10:03:56;;;;;;;;;;;;;;;;;;5042973;23;19925;-50
2023/12/04 10:06:23;;;;;;;;;;;;;;;;;;5032818;28;19948;-50
2023/12/04 10:08:50;;;;;;;;;;;;;;;;;;5033999;28;20431;-50
2023/12/04 10:11:16;;;;;;;;;;;;;;;;;;5033988;28;19913;-49
2023/12/04 10:13:42;;;;;;;;;;;;;;;;;;5033729;28;19915;-49
2023/12/04 10:16:08;;;;;;;;;;;;;;;;;;5034006;28;19920;-50
2023/12/04 10:18:35;;;;;;;;;;;;;;;;;;5033887;28;20308;-49
2023/12/04 10:21:07;;;;;;;;;;;;;;;;;;5034103;28;20300;-50
2023/12/04 10:23:33;;;;;;;;;;;;;;;;;;5033583;28;20336;-50
2023/12/04 10:25:59;;;;;;;;;;;;;;;;;;5033808;28;19913;-50
2023/12/04 10:28:26;;;;;;;;;;;;;;;;;;5034087;28;19939;-50
2023/12/04 10:30:52;;;;;;;;;;;;;;;;;;5033502;28;19959;-51
2023/12/04 10:33:18;;;;;;;;;;;;;;;;;;5033353;28;19913;-50
2023/12/04 10:35:44;;;;;;;;;;;;;;;;;;5033596;28;19920;-49
2023/12/04 10:38:10;;;;;;;;;;;;;;;;;;5033535;28;19913;-50
2023/12/04 10:40:36;;;;;;;;;;;;;;;;;;5033470;28;20369;-50
2023/12/04 10:43:03;;;;;;;;;;;;;;;;;;5033167;28;19967;-50
2023/12/04 10:45:29;;;;;;;;;;;;;;;;;;5033177;28;19957;-50
2023/12/04 10:47:55;;;;;;;;;;;;;;;;;;5032133;28;19920;-49
2023/12/04 10:50:21;;;;;;;;;;;;;;;;;;5033237;28;19921;-49
2023/12/04 10:52:47;;;;;;;;;;;;;;;;;;5033038;28;19956;-50
2023/12/04 10:55:14;;;;;;;;;;;;;;;;;;5031746;28;19913;-52
2023/12/04 10:57:40;;;;;;;;;;;;;;;;;;5033093;28;19917;-49
2023/12/04 11:00:08;;;;;;;;;;;;;;;;;;5033068;28;20007;-50
2023/12/04 11:02:34;;;;;;;;;;;;;;;;;;5032843;28;19914;-50
2023/12/04 11:05:00;;;;;;;;;;;;;;;;;;5032805;28;20401;-49
2023/12/04 11:07:27;;;;;;;;;;;;;;;;;;5032937;28;19913;-50
2023/12/04 11:09:53;;;;;;;;;;;;;;;;;;5033407;28;19913;-50
2023/12/04 11:12:19;;;;;;;;;;;;;;;;;;5031815;28;20382;-49
2023/12/04 11:14:45;;;;;;;;;;;;;;;;;;5032639;28;19916;-50
2023/12/04 11:17:11;;;;;;;;;;;;;;;;;;5032807;28;19913;-50
2023/12/04 11:19:37;;;;;;;;;;;;;;;;;;5019541;28;20255;-49
2023/12/04 11:22:03;;;;;;;;;;;;;;;;;;5022082;28;19991;-50
2023/12/04 11:24:29;;;;;;;;;;;;;;;;;;5026347;28;19946;-50
2023/12/04 11:26:56;;;;;;;;;;;;;;;;;;5025426;28;20430;-50
2023/12/04 11:29:22;;;;;;;;;;;;;;;;;;5028363;28;20304;-50
2023/12/04 11:31:48;;;;;;;;;;;;;;;;;;5026222;28;19940;-52
2023/12/04 11:34:14;;;;;;;;;;;;;;;;;;5024883;28;19956;-50
2023/12/04 11:36:40;;;;;;;;;;;;;;;;;;5027645;28;19925;-50
2023/12/04 11:39:06;;;;;;;;;;;;;;;;;;5030837;28;19992;-50
2023/12/04 11:41:35;;;;;;;;;;;;;;;;;;5032614;28;20328;-50
2023/12/04 11:44:01;;;;;;;;;;;;;;;;;;5032350;28;20000;-49
2023/12/04 11:46:33;;;;;;;;;;;;;;;;;;5032456;28;20362;-50
2023/12/04 11:48:59;;;;;;;;;;;;;;;;;;5022184;28;19924;-50
2023/12/04 11:51:25;;;;;;;;;;;;;;;;;;5013056;28;19917;-50
2023/12/04 11:53:52;;;;;;;;;;;;;;;;;;5030235;28;19924;-51
2023/12/04 11:56:18;;;;;;;;;;;;;;;;;;5029354;28;20000;-51
2023/12/04 11:58:44;;;;;;;;;;;;;;;;;;5027842;28;20603;-51
2023/12/04 12:01:10;;;;;;;;;;;;;;;;;;5019084;28;19922;-49
2023/12/04 12:03:36;;;;;;;;;;;;;;;;;;5022799;28;19940;-52
2023/12/04 12:06:02;;;;;;;;;;;;;;;;;;5021904;28;19917;-53
2023/12/04 12:08:28;;;;;;;;;;;;;;;;;;5023016;28;19917;-48
2023/12/04 12:10:54;;;;;;;;;;;;;;;;;;5008191;28;20448;-49
2023/12/04 12:13:21;;;;;;;;;;;;;;;;;;5027285;28;19913;-51
2023/12/04 12:15:47;;;;;;;;;;;;;;;;;;5011763;28;20392;-50
2023/12/04 12:18:13;;;;;;;;;;;;;;;;;;5024551;28;19919;-50
2023/12/04 12:20:39;;;;;;;;;;;;;;;;;;5029959;28;19909;-54
2023/12/04 12:23:05;;;;;;;;;;;;;;;;;;5022889;28;19913;-49
2023/12/04 12:25:31;;;;;;;;;;;;;;;;;;5028512;28;19945;-49
2023/12/04 12:27:57;;;;;;;;;;;;;;;;;;5014690;28;19921;-49
2023/12/04 12:30:23;;;;;;;;;;;;;;;;;;5035905;28;19916;-49
2023/12/04 12:32:49;;;;;;;;;;;;;;;;;;5035842;28;20393;-49
2023/12/04 12:35:15;;;;;;;;;;;;;;;;;;5035834;28;19916;-49
2023/12/04 12:37:42;;;;;;;;;;;;;;;;;;5035893;28;20400;-49
2023/12/04 12:40:09;;;;;;;;;;;;;;;;;;5035703;28;19970;-49
2023/12/04 12:42:35;;;;;;;;;;;;;;;;;;5035764;28;19913;-49
2023/12/04 12:45:03;;;;;;;;;;;;;;;;;;5035792;28;20266;-49
2023/12/04 12:47:29;;;;;;;;;;;;;;;;;;5034626;28;19909;-52
2023/12/04 12:49:56;;;;;;;;;;;;;;;;;;5032659;28;20289;-51
2023/12/04 12:52:22;;;;;;;;;;;;;;;;;;5030442;28;20340;-51
2023/12/04 12:54:48;;;;;;;;;;;;;;;;;;5016507;28;19944;-52
2023/12/04 12:57:14;;;;;;;;;;;;;;;;;;5019831;28;19955;-49
2023/12/04 12:59:40;;;;;;;;;;;;;;;;;;5029932;28;19924;-49
2023/12/04 13:02:06;;;;;;;;;;;;;;;;;;5014356;28;19914;-49
2023/12/04 13:04:32;;;;;;;;;;;;;;;;;;5015340;28;20428;-52
2023/12/04 13:06:58;;;;;;;;;;;;;;;;;;5026172;28;19999;-49
2023/12/04 13:09:24;;;;;;;;;;;;;;;;;;5030937;28;19917;-49
2023/12/04 13:11:52;;;;;;;;;;;;;;;;;;5015421;28;20599;-49
2023/12/04 13:14:18;;;;;;;;;;;;;;;;;;5021930;28;19913;-50
2023/12/04 13:16:44;;;;;;;;;;;;;;;;;;5035154;28;19909;-49
2023/12/04 13:19:10;;;;;;;;;;;;;;;;;;5017340;28;19924;-49
2023/12/04 13:21:36;;;;;;;;;;;;;;;;;;5034948;28;19916;-49
2023/12/04 13:24:06;;;;;;;;;;;;;;;;;;5033476;28;20381;-49
2023/12/04 13:26:33;;;;;;;;;;;;;;;;;;5027512;28;19917;-51
2023/12/04 13:28:59;;;;;;;;;;;;;;;;;;5015122;28;19921;-52
2023/12/04 13:31:25;;;;;;;;;;;;;;;;;;5015998;28;19925;-53
2023/12/04 13:33:51;;;;;;;;;;;;;;;;;;5025806;28;19920;-51
2023/12/04 13:36:17;;;;;;;;;;;;;;;;;;5014143;28;19921;-51
2023/12/04 13:38:43;;;;;;;;;;;;;;;;;;5026407;28;19920;-52
2023/12/04 13:44:05;;;;;;;;;;;;;;;;;;4977585;28;20490;-52
2023/12/04 13:46:31;;;;;;;;;;;;;;;;;;5026257;28;19961;-50
2023/12/04 13:48:57;;;;;;;;;;;;;;;;;;5018946;28;20236;-55
2023/12/04 13:51:23;;;;;;;;;;;;;;;;;;5012569;28;19913;-51
2023/12/04 13:53:55;;;;;;;;;;;;;;;;;;5012900;28;19920;-52
2023/12/04 13:58:49;;;;;;;;;;;;;;;;;;5014300;28;19910;-52
2023/12/04 14:01:22;;;;;;;;;;;;;;;;;;5017851;28;19917;-51
2023/12/04 14:03:48;;;;;;;;;;;;;;;;;;5033870;28;19962;-52
2023/12/04 14:06:15;;;;;;;;;;;;;;;;;;5034151;28;20004;-51
2023/12/04 14:08:41;;;;;;;;;;;;;;;;;;5034032;28;19913;-52
2023/12/04 14:11:07;;;;;;;;;;;;;;;;;;5033876;28;20293;-49
2023/12/04 14:13:34;;;;;;;;;;;;;;;;;;5033074;28;19959;-51
2023/12/04 14:16:01;;;;;;;;;;;;;;;;;;5033873;28;20330;-52
2023/12/04 14:18:29;;;;;;;;;;;;;;;;;;5029865;28;19957;-52
2023/12/04 14:20:55;;;;;;;;;;;;;;;;;;5032562;28;19960;-50
2023/12/04 14:23:21;;;;;;;;;;;;;;;;;;5033523;28;19956;-52
2023/12/04 14:25:47;;;;;;;;;;;;;;;;;;5033770;28;19914;-52
2023/12/04 14:28:13;;;;;;;;;;;;;;;;;;5031993;28;19967;-52
2023/12/04 14:30:40;;;;;;;;;;;;;;;;;;5031120;28;19921;-53
2023/12/04 14:33:06;;;;;;;;;;;;;;;;;;5033688;28;20431;-49
2023/12/04 14:35:32;;;;;;;;;;;;;;;;;;5033677;28;19936;-49
2023/12/04 14:37:58;;;;;;;;;;;;;;;;;;5033586;28;19917;-49
2023/12/04 14:40:24;;;;;;;;;;;;;;;;;;5033711;28;19918;-49
2023/12/04 14:42:50;;;;;;;;;;;;;;;;;;5033419;28;19913;-52
2023/12/04 14:45:16;;;;;;;;;;;;;;;;;;5032061;28;19964;-49
2023/12/04 14:47:43;;;;;;;;;;;;;;;;;;5032054;28;19914;-48
2023/12/04 14:50:10;;;;;;;;;;;;;;;;;;5033281;28;20008;-49
2023/12/04 14:52:43;;;;;;;;;;;;;;;;;;5031759;28;19918;-47
2023/12/04 15:03:13;;;;;;;;;;;;;;;;;;5033024;28;19913;-48
2023/12/04 15:08:55;;;;;;;;;;;;;;;;;;5013360;28;20390;-48
2023/12/04 15:11:43;;;;;;;;;;;;;;;;;;5012990;28;19917;-48
2023/12/04 15:14:15;;;;;;;;;;;;;;;;;;5008422;28;20366;-48
2023/12/04 15:16:49;;;;;;;;;;;;;;;;;;5012966;28;20416;-48
2023/12/04 15:19:35;;;;;;;;;;;;;;;;;;5013097;28;19959;-48
2023/12/04 15:22:01;;;;;;;;;;;;;;;;;;5012875;28;20252;-48
2023/12/04 15:24:27;;;;;;;;;;;;;;;;;;5011467;28;20004;-49
2023/12/04 15:26:53;;;;;;;;;;;;;;;;;;5012849;28;20488;-51
2023/12/04 15:29:20;;;;;;;;;;;;;;;;;;5011508;28;20286;-49
2023/12/04 15:31:46;;;;;;;;;;;;;;;;;;5012730;28;19917;-48
2023/12/04 15:34:12;;;;;;;;;;;;;;;;;;5011760;28;19945;-48
2023/12/04 15:36:38;;;;;;;;;;;;;;;;;;5011362;28;20294;-52
2023/12/04 15:39:04;;;;;;;;;;;;;;;;;;5012811;28;20368;-48
2023/12/04 15:41:30;;;;;;;;;;;;;;;;;;5011520;28;19944;-48
2023/12/04 15:43:57;;;;;;;;;;;;;;;;;;5018480;28;19913;-48
2023/12/04 15:46:23;;;;;;;;;;;;;;;;;;5012785;28;19910;-49
2023/12/04 15:48:49;;;;;;;;;;;;;;;;;;5012928;28;19914;-45
2023/12/04 15:51:15;;;;;;;;;;;;;;;;;;5012500;28;19920;-48
2023/12/04 15:53:41;;;;;;;;;;;;;;;;;;5012255;28;20278;-48
2023/12/04 15:56:07;;;;;;;;;;;;;;;;;;5032108;28;19919;-48
2023/12/04 15:58:33;;;;;;;;;;;;;;;;;;5030750;28;19913;-48
2023/12/04 16:00:59;;;;;;;;;;;;;;;;;;5031854;28;20389;-48
2023/12/04 16:03:25;;;;;;;;;;;;;;;;;;5031894;28;19913;-48
2023/12/04 16:05:51;;;;;;;;;;;;;;;;;;5020991;23;19925;-52
2023/12/04 16:08:17;;;;;;;;;;;;;;;;;;5011822;28;20386;-51
2023/12/04 16:10:45;;;;;;;;;;;;;;;;;;5012331;28;19955;-51
2023/12/04 16:13:11;;;;;;;;;;;;;;;;;;5012133;28;19920;-49
2023/12/04 16:15:37;;;;;;;;;;;;;;;;;;5012456;28;19913;-48
2023/12/04 16:18:03;;;;;;;;;;;;;;;;;;5012482;28;20005;-48
2023/12/04 16:20:29;;;;;;;;;;;;;;;;;;5012510;28;19968;-48
2023/12/04 16:22:55;;;;;;;;;;;;;;;;;;5012497;28;19914;-48
2023/12/04 16:25:22;;;;;;;;;;;;;;;;;;5012139;28;20378;-47
2023/12/04 16:27:48;;;;;;;;;;;;;;;;;;5012362;28;19920;-48
2023/12/04 16:30:14;;;;;;;;;;;;;;;;;;5012421;28;19921;-48
2023/12/04 16:32:40;;;;;;;;;;;;;;;;;;5012090;28;19975;-48
2023/12/04 16:35:07;;;;;;;;;;;;;;;;;;5010782;28;19953;-48
2023/12/04 16:37:34;;;;;;;;;;;;;;;;;;5012371;28;19917;-48
2023/12/04 16:40:00;;;;;;;;;;;;;;;;;;5012177;28;20055;-49
2023/12/04 16:42:26;;;;;;;;;;;;;;;;;;5012079;28;19961;-49
2023/12/04 16:44:52;;;;;;;;;;;;;;;;;;5012060;28;19921;-48
2023/12/04 16:47:18;;;;;;;;;;;;;;;;;;5010885;28;19914;-48
2023/12/04 16:49:44;;;;;;;;;;;;;;;;;;5010809;28;19913;-48
2023/12/04 16:52:14;;;;;;;;;;;;;;;;;;5011829;28;19917;-48
2023/12/04 16:54:40;;;;;;;;;;;;;;;;;;5011990;28;19917;-48
2023/12/04 16:57:06;;;;;;;;;;;;;;;;;;5010320;28;19921;-48